sensor_id;sensor_type;location;lat;lon;timestamp;P1;durP1;ratioP1;P2;durP2;ratioP2
9745;SDS011;4912;50.836;12.958;2022-08-19T00:03:00;26.77;;;22.47;;
9745;SDS011;4912;50.836;12.958;2022-08-19T00:05:30;28.40;;;21.52;;
9745;SDS011;4912;50.836;12.958;2022-08-19T00:08:01;25.23;;;20.70;;
9745;SDS011;4912;50.836;12.958;2022-08-19T00:10:34;26.15;;;20.95;;
9745;SDS011;4912;50.836;12.958;2022-08-19T00:13:05;24.35;;;20.45;;
9745;SDS011;4912;50.836;12.958;2022-08-19T00:15:36;26.45;;;21.05;;
9745;SDS011;4912;50.836;12.958;2022-08-19T00:18:06;25.83;;;21.02;;
9745;SDS011;4912;50.836;12.958;2022-08-19T00:20:36;27.08;;;21.92;;
9745;SDS011;4912;50.836;12.958;2022-08-19T00:23:07;24.02;;;19.77;;
9745;SDS011;4912;50.836;12.958;2022-08-19T00:25:40;25.00;;;20.40;;
9745;SDS011;4912;50.836;12.958;2022-08-19T00:28:14;25.65;;;20.45;;
9745;SDS011;4912;50.836;12.958;2022-08-19T00:30:44;23.55;;;20.38;;
9745;SDS011;4912;50.836;12.958;2022-08-19T00:33:14;26.15;;;20.88;;
9745;SDS011;4912;50.836;12.958;2022-08-19T00:35:46;26.15;;;21.38;;
9745;SDS011;4912;50.836;12.958;2022-08-19T00:38:21;23.67;;;19.50;;
9745;SDS011;4912;50.836;12.958;2022-08-19T00:41:05;23.33;;;19.83;;
9745;SDS011;4912;50.836;12.958;2022-08-19T00:43:36;25.05;;;19.77;;
9745;SDS011;4912;50.836;12.958;2022-08-19T00:46:07;27.50;;;21.27;;
9745;SDS011;4912;50.836;12.958;2022-08-19T00:48:38;27.67;;;20.80;;
9745;SDS011;4912;50.836;12.958;2022-08-19T00:53:38;28.00;;;20.92;;
9745;SDS011;4912;50.836;12.958;2022-08-19T00:56:12;25.05;;;21.42;;
9745;SDS011;4912;50.836;12.958;2022-08-19T00:58:43;25.60;;;21.45;;
9745;SDS011;4912;50.836;12.958;2022-08-19T01:01:14;26.65;;;21.77;;
9745;SDS011;4912;50.836;12.958;2022-08-19T01:03:44;30.95;;;22.25;;
9745;SDS011;4912;50.836;12.958;2022-08-19T01:06:24;26.17;;;21.02;;
9745;SDS011;4912;50.836;12.958;2022-08-19T01:08:57;29.92;;;23.50;;
9745;SDS011;4912;50.836;12.958;2022-08-19T01:11:30;27.40;;;22.10;;
9745;SDS011;4912;50.836;12.958;2022-08-19T01:14:06;26.05;;;21.77;;
9745;SDS011;4912;50.836;12.958;2022-08-19T01:16:38;23.75;;;20.55;;
9745;SDS011;4912;50.836;12.958;2022-08-19T01:19:11;26.25;;;21.13;;
9745;SDS011;4912;50.836;12.958;2022-08-19T01:21:55;27.58;;;22.80;;
9745;SDS011;4912;50.836;12.958;2022-08-19T01:24:42;26.80;;;22.02;;
9745;SDS011;4912;50.836;12.958;2022-08-19T01:27:18;25.20;;;20.30;;
9745;SDS011;4912;50.836;12.958;2022-08-19T01:29:50;26.35;;;21.08;;
9745;SDS011;4912;50.836;12.958;2022-08-19T01:32:21;24.67;;;21.73;;
9745;SDS011;4912;50.836;12.958;2022-08-19T01:34:59;27.15;;;20.95;;
9745;SDS011;4912;50.836;12.958;2022-08-19T01:37:40;25.35;;;20.50;;
9745;SDS011;4912;50.836;12.958;2022-08-19T01:40:15;24.95;;;20.33;;
9745;SDS011;4912;50.836;12.958;2022-08-19T01:42:47;25.70;;;20.83;;
9745;SDS011;4912;50.836;12.958;2022-08-19T01:45:18;23.83;;;19.30;;
9745;SDS011;4912;50.836;12.958;2022-08-19T01:47:50;23.00;;;18.63;;
9745;SDS011;4912;50.836;12.958;2022-08-19T01:50:28;20.80;;;17.65;;
9745;SDS011;4912;50.836;12.958;2022-08-19T01:53:00;22.60;;;18.00;;
9745;SDS011;4912;50.836;12.958;2022-08-19T01:55:37;19.98;;;16.52;;
9745;SDS011;4912;50.836;12.958;2022-08-19T01:58:11;19.17;;;16.73;;
9745;SDS011;4912;50.836;12.958;2022-08-19T02:00:50;20.38;;;17.75;;
9745;SDS011;4912;50.836;12.958;2022-08-19T02:03:20;24.40;;;18.30;;
9745;SDS011;4912;50.836;12.958;2022-08-19T02:05:55;21.40;;;18.55;;
9745;SDS011;4912;50.836;12.958;2022-08-19T02:08:27;19.58;;;17.17;;
9745;SDS011;4912;50.836;12.958;2022-08-19T02:11:00;20.98;;;17.52;;
9745;SDS011;4912;50.836;12.958;2022-08-19T02:13:31;23.00;;;17.75;;
9745;SDS011;4912;50.836;12.958;2022-08-19T02:16:03;20.10;;;17.25;;
9745;SDS011;4912;50.836;12.958;2022-08-19T02:18:34;22.70;;;17.70;;
9745;SDS011;4912;50.836;12.958;2022-08-19T02:21:04;19.77;;;17.13;;
9745;SDS011;4912;50.836;12.958;2022-08-19T02:23:34;20.98;;;17.80;;
9745;SDS011;4912;50.836;12.958;2022-08-19T02:28:37;20.70;;;17.38;;
9745;SDS011;4912;50.836;12.958;2022-08-19T02:31:09;20.35;;;16.25;;
9745;SDS011;4912;50.836;12.958;2022-08-19T02:33:41;20.80;;;16.20;;
9745;SDS011;4912;50.836;12.958;2022-08-19T02:36:12;19.85;;;17.48;;
9745;SDS011;4912;50.836;12.958;2022-08-19T02:38:47;19.60;;;17.40;;
9745;SDS011;4912;50.836;12.958;2022-08-19T02:41:24;21.30;;;17.75;;
9745;SDS011;4912;50.836;12.958;2022-08-19T02:43:57;20.02;;;17.17;;
9745;SDS011;4912;50.836;12.958;2022-08-19T02:46:50;21.25;;;17.98;;
9745;SDS011;4912;50.836;12.958;2022-08-19T02:49:22;21.73;;;17.52;;
9745;SDS011;4912;50.836;12.958;2022-08-19T02:51:52;21.15;;;17.35;;
9745;SDS011;4912;50.836;12.958;2022-08-19T02:54:22;23.67;;;18.13;;
9745;SDS011;4912;50.836;12.958;2022-08-19T02:56:55;24.10;;;18.73;;
9745;SDS011;4912;50.836;12.958;2022-08-19T02:59:25;20.83;;;17.98;;
9745;SDS011;4912;50.836;12.958;2022-08-19T03:01:59;23.00;;;18.75;;
9745;SDS011;4912;50.836;12.958;2022-08-19T03:04:29;20.30;;;16.85;;
9745;SDS011;4912;50.836;12.958;2022-08-19T03:06:59;22.42;;;19.02;;
9745;SDS011;4912;50.836;12.958;2022-08-19T03:09:36;23.45;;;18.42;;
9745;SDS011;4912;50.836;12.958;2022-08-19T03:12:11;20.75;;;17.95;;
9745;SDS011;4912;50.836;12.958;2022-08-19T03:14:42;20.00;;;16.52;;
9745;SDS011;4912;50.836;12.958;2022-08-19T03:17:13;17.88;;;15.85;;
9745;SDS011;4912;50.836;12.958;2022-08-19T03:19:43;19.52;;;16.60;;
9745;SDS011;4912;50.836;12.958;2022-08-19T03:22:14;20.48;;;16.55;;
9745;SDS011;4912;50.836;12.958;2022-08-19T03:24:46;20.52;;;17.35;;
9745;SDS011;4912;50.836;12.958;2022-08-19T03:27:19;18.95;;;16.38;;
9745;SDS011;4912;50.836;12.958;2022-08-19T03:29:55;21.20;;;17.58;;
9745;SDS011;4912;50.836;12.958;2022-08-19T03:32:26;21.60;;;17.52;;
9745;SDS011;4912;50.836;12.958;2022-08-19T03:34:59;22.73;;;18.48;;
9745;SDS011;4912;50.836;12.958;2022-08-19T03:37:29;21.98;;;18.20;;
9745;SDS011;4912;50.836;12.958;2022-08-19T03:42:33;23.55;;;17.33;;
9745;SDS011;4912;50.836;12.958;2022-08-19T03:45:15;23.90;;;19.33;;
9745;SDS011;4912;50.836;12.958;2022-08-19T03:47:46;24.13;;;19.58;;
9745;SDS011;4912;50.836;12.958;2022-08-19T03:50:16;24.65;;;19.92;;
9745;SDS011;4912;50.836;12.958;2022-08-19T03:52:48;27.17;;;21.15;;
9745;SDS011;4912;50.836;12.958;2022-08-19T03:55:19;25.77;;;20.08;;
9745;SDS011;4912;50.836;12.958;2022-08-19T03:57:52;28.95;;;21.65;;
9745;SDS011;4912;50.836;12.958;2022-08-19T04:00:24;26.65;;;21.33;;
9745;SDS011;4912;50.836;12.958;2022-08-19T04:02:55;27.30;;;22.20;;
9745;SDS011;4912;50.836;12.958;2022-08-19T04:05:26;31.85;;;23.98;;
9745;SDS011;4912;50.836;12.958;2022-08-19T04:07:57;28.20;;;21.13;;
9745;SDS011;4912;50.836;12.958;2022-08-19T04:10:28;35.90;;;25.33;;
9745;SDS011;4912;50.836;12.958;2022-08-19T04:13:00;31.77;;;25.42;;
9745;SDS011;4912;50.836;12.958;2022-08-19T04:15:32;33.92;;;25.70;;
9745;SDS011;4912;50.836;12.958;2022-08-19T04:18:06;37.00;;;26.75;;
9745;SDS011;4912;50.836;12.958;2022-08-19T04:20:43;39.65;;;26.52;;
9745;SDS011;4912;50.836;12.958;2022-08-19T04:23:16;39.25;;;27.60;;
9745;SDS011;4912;50.836;12.958;2022-08-19T04:25:46;40.17;;;27.30;;
9745;SDS011;4912;50.836;12.958;2022-08-19T04:28:19;43.65;;;29.38;;
9745;SDS011;4912;50.836;12.958;2022-08-19T04:30:50;40.53;;;28.58;;
9745;SDS011;4912;50.836;12.958;2022-08-19T04:33:23;48.30;;;30.52;;
9745;SDS011;4912;50.836;12.958;2022-08-19T04:35:55;42.97;;;29.05;;
9745;SDS011;4912;50.836;12.958;2022-08-19T04:38:25;43.10;;;29.00;;
9745;SDS011;4912;50.836;12.958;2022-08-19T04:40:55;45.72;;;28.13;;
9745;SDS011;4912;50.836;12.958;2022-08-19T04:43:40;42.63;;;28.73;;
9745;SDS011;4912;50.836;12.958;2022-08-19T04:46:15;48.38;;;27.70;;
9745;SDS011;4912;50.836;12.958;2022-08-19T04:49:06;41.08;;;27.77;;
9745;SDS011;4912;50.836;12.958;2022-08-19T04:51:39;60.28;;;30.60;;
9745;SDS011;4912;50.836;12.958;2022-08-19T04:54:12;56.47;;;29.88;;
9745;SDS011;4912;50.836;12.958;2022-08-19T04:57:03;45.45;;;28.98;;
9745;SDS011;4912;50.836;12.958;2022-08-19T04:59:38;51.17;;;30.60;;
9745;SDS011;4912;50.836;12.958;2022-08-19T05:02:09;57.13;;;29.63;;
9745;SDS011;4912;50.836;12.958;2022-08-19T05:04:39;56.55;;;28.77;;
9745;SDS011;4912;50.836;12.958;2022-08-19T05:07:09;50.25;;;30.38;;
9745;SDS011;4912;50.836;12.958;2022-08-19T05:12:24;56.63;;;33.47;;
9745;SDS011;4912;50.836;12.958;2022-08-19T05:14:58;61.55;;;38.83;;
9745;SDS011;4912;50.836;12.958;2022-08-19T05:17:29;48.58;;;29.42;;
9745;SDS011;4912;50.836;12.958;2022-08-19T05:20:05;47.05;;;28.92;;
9745;SDS011;4912;50.836;12.958;2022-08-19T05:22:49;47.15;;;27.42;;
9745;SDS011;4912;50.836;12.958;2022-08-19T05:25:20;43.35;;;26.95;;
9745;SDS011;4912;50.836;12.958;2022-08-19T05:27:52;39.92;;;25.92;;
9745;SDS011;4912;50.836;12.958;2022-08-19T05:30:25;39.42;;;26.38;;
9745;SDS011;4912;50.836;12.958;2022-08-19T05:33:12;38.07;;;24.83;;
9745;SDS011;4912;50.836;12.958;2022-08-19T05:35:42;40.50;;;24.35;;
9745;SDS011;4912;50.836;12.958;2022-08-19T05:38:14;39.17;;;23.25;;
9745;SDS011;4912;50.836;12.958;2022-08-19T05:40:45;38.50;;;23.40;;
9745;SDS011;4912;50.836;12.958;2022-08-19T05:43:16;33.08;;;21.67;;
9745;SDS011;4912;50.836;12.958;2022-08-19T05:45:48;34.10;;;21.90;;
9745;SDS011;4912;50.836;12.958;2022-08-19T05:48:19;30.48;;;19.15;;
9745;SDS011;4912;50.836;12.958;2022-08-19T05:50:49;32.58;;;20.42;;
9745;SDS011;4912;50.836;12.958;2022-08-19T05:53:19;30.88;;;20.02;;
9745;SDS011;4912;50.836;12.958;2022-08-19T05:55:49;30.65;;;20.63;;
9745;SDS011;4912;50.836;12.958;2022-08-19T05:58:22;32.30;;;19.77;;
9745;SDS011;4912;50.836;12.958;2022-08-19T06:00:56;28.70;;;19.00;;
9745;SDS011;4912;50.836;12.958;2022-08-19T06:03:30;32.53;;;20.33;;
9745;SDS011;4912;50.836;12.958;2022-08-19T06:06:04;26.67;;;19.35;;
9745;SDS011;4912;50.836;12.958;2022-08-19T06:08:35;27.50;;;19.33;;
9745;SDS011;4912;50.836;12.958;2022-08-19T06:11:13;33.58;;;22.52;;
9745;SDS011;4912;50.836;12.958;2022-08-19T06:13:48;27.40;;;19.15;;
9745;SDS011;4912;50.836;12.958;2022-08-19T06:16:28;31.13;;;19.85;;
9745;SDS011;4912;50.836;12.958;2022-08-19T06:19:03;29.65;;;20.58;;
9745;SDS011;4912;50.836;12.958;2022-08-19T06:21:36;28.45;;;20.25;;
9745;SDS011;4912;50.836;12.958;2022-08-19T06:24:11;29.27;;;20.45;;
9745;SDS011;4912;50.836;12.958;2022-08-19T06:26:46;26.75;;;18.95;;
9745;SDS011;4912;50.836;12.958;2022-08-19T06:29:25;30.20;;;19.83;;
9745;SDS011;4912;50.836;12.958;2022-08-19T06:32:01;28.27;;;19.30;;
9745;SDS011;4912;50.836;12.958;2022-08-19T06:34:33;28.05;;;19.83;;
9745;SDS011;4912;50.836;12.958;2022-08-19T06:37:04;26.00;;;18.40;;
9745;SDS011;4912;50.836;12.958;2022-08-19T06:39:35;25.95;;;18.90;;
9745;SDS011;4912;50.836;12.958;2022-08-19T06:42:08;27.15;;;18.17;;
9745;SDS011;4912;50.836;12.958;2022-08-19T06:44:44;24.00;;;18.58;;
9745;SDS011;4912;50.836;12.958;2022-08-19T06:47:21;27.50;;;18.52;;
9745;SDS011;4912;50.836;12.958;2022-08-19T06:49:54;27.20;;;19.05;;
9745;SDS011;4912;50.836;12.958;2022-08-19T06:52:28;27.42;;;18.23;;
9745;SDS011;4912;50.836;12.958;2022-08-19T06:55:02;28.63;;;18.73;;
9745;SDS011;4912;50.836;12.958;2022-08-19T06:57:33;23.20;;;17.60;;
9745;SDS011;4912;50.836;12.958;2022-08-19T07:00:04;24.52;;;17.65;;
9745;SDS011;4912;50.836;12.958;2022-08-19T07:02:41;20.75;;;16.08;;
9745;SDS011;4912;50.836;12.958;2022-08-19T07:05:22;24.25;;;17.45;;
9745;SDS011;4912;50.836;12.958;2022-08-19T07:07:53;22.65;;;16.60;;
9745;SDS011;4912;50.836;12.958;2022-08-19T07:10:30;25.70;;;18.38;;
9745;SDS011;4912;50.836;12.958;2022-08-19T07:13:01;19.48;;;15.80;;
9745;SDS011;4912;50.836;12.958;2022-08-19T07:15:32;18.25;;;14.35;;
9745;SDS011;4912;50.836;12.958;2022-08-19T07:18:07;19.17;;;14.55;;
9745;SDS011;4912;50.836;12.958;2022-08-19T07:20:38;19.63;;;14.23;;
9745;SDS011;4912;50.836;12.958;2022-08-19T07:23:09;17.15;;;14.15;;
9745;SDS011;4912;50.836;12.958;2022-08-19T07:25:42;20.08;;;15.75;;
9745;SDS011;4912;50.836;12.958;2022-08-19T07:28:18;18.23;;;14.38;;
9745;SDS011;4912;50.836;12.958;2022-08-19T07:30:50;18.20;;;14.38;;
9745;SDS011;4912;50.836;12.958;2022-08-19T07:35:54;21.42;;;15.65;;
9745;SDS011;4912;50.836;12.958;2022-08-19T07:38:25;22.63;;;16.80;;
9745;SDS011;4912;50.836;12.958;2022-08-19T07:40:55;24.38;;;16.52;;
9745;SDS011;4912;50.836;12.958;2022-08-19T07:43:25;29.45;;;18.15;;
9745;SDS011;4912;50.836;12.958;2022-08-19T07:46:00;29.60;;;18.30;;
9745;SDS011;4912;50.836;12.958;2022-08-19T07:48:33;37.60;;;23.58;;
9745;SDS011;4912;50.836;12.958;2022-08-19T07:51:05;43.15;;;24.58;;
9745;SDS011;4912;50.836;12.958;2022-08-19T07:53:39;41.42;;;25.25;;
9745;SDS011;4912;50.836;12.958;2022-08-19T07:56:11;42.60;;;26.15;;
9745;SDS011;4912;50.836;12.958;2022-08-19T07:58:44;36.40;;;24.80;;
9745;SDS011;4912;50.836;12.958;2022-08-19T08:01:18;41.58;;;24.27;;
9745;SDS011;4912;50.836;12.958;2022-08-19T08:03:56;37.53;;;23.95;;
9745;SDS011;4912;50.836;12.958;2022-08-19T08:06:39;34.08;;;22.45;;
9745;SDS011;4912;50.836;12.958;2022-08-19T08:09:23;28.98;;;21.92;;
9745;SDS011;4912;50.836;12.958;2022-08-19T08:11:59;30.83;;;21.85;;
9745;SDS011;4912;50.836;12.958;2022-08-19T08:14:53;27.88;;;21.55;;
9745;SDS011;4912;50.836;12.958;2022-08-19T08:17:28;25.73;;;20.35;;
9745;SDS011;4912;50.836;12.958;2022-08-19T08:20:19;25.98;;;20.95;;
9745;SDS011;4912;50.836;12.958;2022-08-19T08:22:50;22.83;;;19.73;;
9745;SDS011;4912;50.836;12.958;2022-08-19T08:25:33;28.08;;;20.33;;
9745;SDS011;4912;50.836;12.958;2022-08-19T08:28:04;22.50;;;18.45;;
9745;SDS011;4912;50.836;12.958;2022-08-19T08:30:37;27.15;;;18.38;;
9745;SDS011;4912;50.836;12.958;2022-08-19T08:33:11;21.42;;;18.13;;
9745;SDS011;4912;50.836;12.958;2022-08-19T08:36:05;23.52;;;19.08;;
9745;SDS011;4912;50.836;12.958;2022-08-19T08:38:36;22.38;;;18.80;;
9745;SDS011;4912;50.836;12.958;2022-08-19T08:41:09;25.73;;;20.42;;
9745;SDS011;4912;50.836;12.958;2022-08-19T08:43:49;25.88;;;20.60;;
9745;SDS011;4912;50.836;12.958;2022-08-19T08:46:23;29.60;;;20.95;;
9745;SDS011;4912;50.836;12.958;2022-08-19T08:49:05;30.27;;;22.85;;
9745;SDS011;4912;50.836;12.958;2022-08-19T08:51:52;28.98;;;22.05;;
9745;SDS011;4912;50.836;12.958;2022-08-19T08:54:30;31.38;;;22.40;;
9745;SDS011;4912;50.836;12.958;2022-08-19T08:57:07;34.25;;;22.15;;
9745;SDS011;4912;50.836;12.958;2022-08-19T08:59:43;31.20;;;20.95;;
9745;SDS011;4912;50.836;12.958;2022-08-19T09:02:18;29.63;;;21.70;;
9745;SDS011;4912;50.836;12.958;2022-08-19T09:04:48;29.95;;;22.35;;
9745;SDS011;4912;50.836;12.958;2022-08-19T09:07:25;29.33;;;22.10;;
9745;SDS011;4912;50.836;12.958;2022-08-19T09:10:15;32.42;;;23.48;;
9745;SDS011;4912;50.836;12.958;2022-08-19T09:12:54;32.38;;;22.77;;
9745;SDS011;4912;50.836;12.958;2022-08-19T09:15:36;26.10;;;21.08;;
9745;SDS011;4912;50.836;12.958;2022-08-19T09:18:17;31.88;;;22.33;;
9745;SDS011;4912;50.836;12.958;2022-08-19T09:20:47;25.13;;;20.92;;
9745;SDS011;4912;50.836;12.958;2022-08-19T09:23:20;28.40;;;21.92;;
9745;SDS011;4912;50.836;12.958;2022-08-19T09:25:52;28.63;;;22.70;;
9745;SDS011;4912;50.836;12.958;2022-08-19T09:28:24;28.80;;;21.95;;
9745;SDS011;4912;50.836;12.958;2022-08-19T09:30:54;31.63;;;23.15;;
9745;SDS011;4912;50.836;12.958;2022-08-19T09:33:24;27.63;;;21.67;;
9745;SDS011;4912;50.836;12.958;2022-08-19T09:36:01;31.50;;;23.48;;
9745;SDS011;4912;50.836;12.958;2022-08-19T09:38:36;29.35;;;22.45;;
9745;SDS011;4912;50.836;12.958;2022-08-19T09:41:10;28.40;;;20.98;;
9745;SDS011;4912;50.836;12.958;2022-08-19T09:43:44;27.95;;;21.88;;
9745;SDS011;4912;50.836;12.958;2022-08-19T09:46:19;28.00;;;22.42;;
9745;SDS011;4912;50.836;12.958;2022-08-19T09:48:51;28.40;;;22.10;;
9745;SDS011;4912;50.836;12.958;2022-08-19T09:51:28;26.23;;;19.13;;
9745;SDS011;4912;50.836;12.958;2022-08-19T09:54:03;25.10;;;20.05;;
9745;SDS011;4912;50.836;12.958;2022-08-19T09:56:37;25.52;;;21.13;;
9745;SDS011;4912;50.836;12.958;2022-08-19T09:59:08;25.88;;;19.83;;
9745;SDS011;4912;50.836;12.958;2022-08-19T10:01:38;22.95;;;19.00;;
9745;SDS011;4912;50.836;12.958;2022-08-19T10:04:09;26.73;;;21.15;;
9745;SDS011;4912;50.836;12.958;2022-08-19T10:06:45;24.30;;;19.90;;
9745;SDS011;4912;50.836;12.958;2022-08-19T10:09:21;29.13;;;20.90;;
9745;SDS011;4912;50.836;12.958;2022-08-19T10:12:00;27.23;;;20.67;;
9745;SDS011;4912;50.836;12.958;2022-08-19T10:14:36;30.85;;;25.08;;
9745;SDS011;4912;50.836;12.958;2022-08-19T10:19:47;21.38;;;17.48;;
9745;SDS011;4912;50.836;12.958;2022-08-19T10:22:21;21.58;;;17.52;;
9745;SDS011;4912;50.836;12.958;2022-08-19T10:24:55;24.55;;;17.67;;
9745;SDS011;4912;50.836;12.958;2022-08-19T10:27:25;22.67;;;17.95;;
9745;SDS011;4912;50.836;12.958;2022-08-19T10:29:57;22.08;;;16.70;;
9745;SDS011;4912;50.836;12.958;2022-08-19T10:34:59;25.25;;;17.98;;
9745;SDS011;4912;50.836;12.958;2022-08-19T10:37:32;21.40;;;17.00;;
9745;SDS011;4912;50.836;12.958;2022-08-19T10:40:17;23.63;;;17.45;;
9745;SDS011;4912;50.836;12.958;2022-08-19T10:42:48;24.42;;;19.13;;
9745;SDS011;4912;50.836;12.958;2022-08-19T10:47:53;28.67;;;21.65;;
9745;SDS011;4912;50.836;12.958;2022-08-19T10:50:24;28.15;;;21.00;;
9745;SDS011;4912;50.836;12.958;2022-08-19T10:53:07;30.52;;;23.60;;
9745;SDS011;4912;50.836;12.958;2022-08-19T10:55:40;39.40;;;28.33;;
9745;SDS011;4912;50.836;12.958;2022-08-19T10:58:23;48.90;;;33.50;;
9745;SDS011;4912;50.836;12.958;2022-08-19T11:00:54;48.35;;;34.53;;
9745;SDS011;4912;50.836;12.958;2022-08-19T11:03:27;49.95;;;34.78;;
9745;SDS011;4912;50.836;12.958;2022-08-19T11:05:58;51.70;;;35.42;;
9745;SDS011;4912;50.836;12.958;2022-08-19T11:08:28;44.40;;;30.33;;
9745;SDS011;4912;50.836;12.958;2022-08-19T11:11:03;35.72;;;26.38;;
9745;SDS011;4912;50.836;12.958;2022-08-19T11:13:37;34.60;;;24.85;;
9745;SDS011;4912;50.836;12.958;2022-08-19T11:16:11;32.40;;;24.80;;
9745;SDS011;4912;50.836;12.958;2022-08-19T11:18:45;33.45;;;23.63;;
9745;SDS011;4912;50.836;12.958;2022-08-19T11:21:17;34.03;;;24.08;;
9745;SDS011;4912;50.836;12.958;2022-08-19T11:23:51;35.63;;;26.88;;
9745;SDS011;4912;50.836;12.958;2022-08-19T11:26:26;35.42;;;25.73;;
9745;SDS011;4912;50.836;12.958;2022-08-19T11:28:58;35.92;;;26.75;;
9745;SDS011;4912;50.836;12.958;2022-08-19T11:31:30;41.35;;;28.30;;
9745;SDS011;4912;50.836;12.958;2022-08-19T11:34:06;39.53;;;30.02;;
9745;SDS011;4912;50.836;12.958;2022-08-19T11:36:40;36.92;;;28.45;;
9745;SDS011;4912;50.836;12.958;2022-08-19T11:39:13;41.03;;;30.45;;
9745;SDS011;4912;50.836;12.958;2022-08-19T11:41:49;45.85;;;31.83;;
9745;SDS011;4912;50.836;12.958;2022-08-19T11:44:19;51.75;;;37.15;;
9745;SDS011;4912;50.836;12.958;2022-08-19T11:46:49;53.60;;;37.08;;
9745;SDS011;4912;50.836;12.958;2022-08-19T11:51:50;48.93;;;34.43;;
9745;SDS011;4912;50.836;12.958;2022-08-19T11:56:53;51.70;;;36.10;;
9745;SDS011;4912;50.836;12.958;2022-08-19T11:59:23;49.38;;;34.67;;
9745;SDS011;4912;50.836;12.958;2022-08-19T12:01:55;51.03;;;37.78;;
9745;SDS011;4912;50.836;12.958;2022-08-19T12:06:55;47.00;;;34.35;;
9745;SDS011;4912;50.836;12.958;2022-08-19T12:09:25;53.55;;;35.20;;
9745;SDS011;4912;50.836;12.958;2022-08-19T12:11:59;47.65;;;34.70;;
9745;SDS011;4912;50.836;12.958;2022-08-19T12:14:29;51.92;;;36.58;;
9745;SDS011;4912;50.836;12.958;2022-08-19T12:16:59;49.42;;;35.33;;
9745;SDS011;4912;50.836;12.958;2022-08-19T12:19:32;55.05;;;35.53;;
9745;SDS011;4912;50.836;12.958;2022-08-19T12:22:03;51.13;;;34.63;;
9745;SDS011;4912;50.836;12.958;2022-08-19T12:24:34;53.25;;;35.78;;
9745;SDS011;4912;50.836;12.958;2022-08-19T12:27:07;47.85;;;34.50;;
9745;SDS011;4912;50.836;12.958;2022-08-19T12:29:38;50.15;;;34.63;;
9745;SDS011;4912;50.836;12.958;2022-08-19T12:32:08;54.63;;;36.40;;
9745;SDS011;4912;50.836;12.958;2022-08-19T12:34:39;58.03;;;36.88;;
9745;SDS011;4912;50.836;12.958;2022-08-19T12:37:09;55.53;;;36.60;;
9745;SDS011;4912;50.836;12.958;2022-08-19T12:39:40;57.95;;;37.30;;
9745;SDS011;4912;50.836;12.958;2022-08-19T12:42:15;58.67;;;38.90;;
9745;SDS011;4912;50.836;12.958;2022-08-19T12:44:46;59.42;;;40.83;;
9745;SDS011;4912;50.836;12.958;2022-08-19T12:47:16;66.78;;;42.42;;
9745;SDS011;4912;50.836;12.958;2022-08-19T12:49:47;72.47;;;45.03;;
9745;SDS011;4912;50.836;12.958;2022-08-19T12:52:21;70.53;;;44.47;;
9745;SDS011;4912;50.836;12.958;2022-08-19T12:54:54;77.65;;;47.42;;
9745;SDS011;4912;50.836;12.958;2022-08-19T12:57:29;67.85;;;44.10;;
9745;SDS011;4912;50.836;12.958;2022-08-19T13:00:00;67.82;;;45.47;;
9745;SDS011;4912;50.836;12.958;2022-08-19T13:02:36;69.57;;;44.85;;
9745;SDS011;4912;50.836;12.958;2022-08-19T13:05:08;71.22;;;47.58;;
9745;SDS011;4912;50.836;12.958;2022-08-19T13:07:42;64.13;;;41.40;;
